createdAt,value
2018-04-26T00:00:03.730Z,14.95
2018-04-26T00:02:30.586Z,15.55
2018-04-26T00:04:57.478Z,14.87
2018-04-26T00:07:24.508Z,15.90
2018-04-26T00:09:51.373Z,15.70
2018-04-26T00:12:18.615Z,14.90
2018-04-26T00:14:45.538Z,14.73
2018-04-26T00:17:12.476Z,13.82
2018-04-26T00:19:39.235Z,14.60
2018-04-26T00:22:05.957Z,14.85
2018-04-26T00:24:32.892Z,15.40
2018-04-26T00:26:59.858Z,14.50
2018-04-26T00:29:26.842Z,14.65
2018-04-26T00:31:53.832Z,15.85
2018-04-26T00:34:20.633Z,15.38
2018-04-26T00:36:47.500Z,14.82
2018-04-26T00:39:14.226Z,14.73
2018-04-26T00:41:40.952Z,14.45
2018-04-26T00:44:07.734Z,15.25
2018-04-26T00:46:34.481Z,12.63
2018-04-26T00:49:01.342Z,11.73
2018-04-26T00:51:34.034Z,11.32
2018-04-26T00:54:01.073Z,9.23
2018-04-26T00:56:27.816Z,8.98
2018-04-26T00:58:54.553Z,9.65
2018-04-26T01:01:21.271Z,9.05
2018-04-26T01:03:48.027Z,8.52
2018-04-26T01:06:14.776Z,8.82
2018-04-26T01:08:41.498Z,8.40
2018-04-26T01:11:08.270Z,7.75
2018-04-26T01:13:35.088Z,8.95
2018-04-26T01:16:01.974Z,7.80
2018-04-26T01:18:28.732Z,8.65
2018-04-26T01:20:55.486Z,8.02
2018-04-26T01:23:22.350Z,7.55
2018-04-26T01:25:49.106Z,7.85
2018-04-26T01:28:15.869Z,7.20
2018-04-26T01:30:42.705Z,7.07
2018-04-26T01:33:09.604Z,8.30
2018-04-26T01:35:38.069Z,7.35
2018-04-26T01:38:05.021Z,7.07
2018-04-26T01:40:31.938Z,8.75
2018-04-26T01:42:58.889Z,6.35
2018-04-26T01:45:25.717Z,7.00
2018-04-26T01:47:52.528Z,6.47
2018-04-26T01:50:19.329Z,6.45
2018-04-26T01:52:46.134Z,7.90
2018-04-26T01:55:12.862Z,6.20
2018-04-26T01:57:39.887Z,6.65
2018-04-26T02:00:06.607Z,6.87
2018-04-26T02:02:33.858Z,7.22
2018-04-26T02:05:01.118Z,6.85
2018-04-26T02:07:28.097Z,6.35
2018-04-26T02:09:54.989Z,6.53
2018-04-26T02:12:21.723Z,7.40
2018-04-26T02:14:48.437Z,6.50
2018-04-26T02:17:15.181Z,6.47
2018-04-26T02:19:41.928Z,7.60
2018-04-26T02:22:08.892Z,6.68
2018-04-26T02:24:35.647Z,7.78
2018-04-26T02:27:02.372Z,7.45
2018-04-26T02:29:29.356Z,7.40
2018-04-26T02:31:56.901Z,7.50
2018-04-26T02:34:23.888Z,7.62
2018-04-26T02:36:50.749Z,7.95
2018-04-26T02:39:17.891Z,7.03
2018-04-26T02:41:44.625Z,8.05
2018-04-26T02:44:11.333Z,8.30
2018-04-26T02:46:38.357Z,8.73
2018-04-26T02:49:05.133Z,8.65
2018-04-26T02:51:32.082Z,7.60
2018-04-26T02:53:58.980Z,8.70
2018-04-26T02:56:25.773Z,9.05
2018-04-26T02:58:52.559Z,9.30
2018-04-26T03:01:19.541Z,8.45
2018-04-26T03:03:46.484Z,7.75
2018-04-26T03:06:13.348Z,9.82
2018-04-26T03:08:40.212Z,9.07
2018-04-26T03:11:07.201Z,10.18
2018-04-26T03:13:33.933Z,10.00
2018-04-26T03:16:00.685Z,9.57
2018-04-26T03:18:27.486Z,9.43
2018-04-26T03:20:54.205Z,10.45
2018-04-26T03:23:20.933Z,11.18
2018-04-26T03:25:47.755Z,11.52
2018-04-26T03:28:14.548Z,11.75
2018-04-26T03:30:41.448Z,11.82
2018-04-26T03:33:08.248Z,11.50
2018-04-26T03:35:34.957Z,12.27
2018-04-26T03:38:01.730Z,13.07
2018-04-26T03:40:28.677Z,11.82
2018-04-26T03:42:55.550Z,12.57
2018-04-26T03:45:22.426Z,12.60
2018-04-26T03:47:49.262Z,12.30
2018-04-26T03:50:16.029Z,13.77
2018-04-26T03:52:42.808Z,11.63
2018-04-26T03:55:09.518Z,12.60
2018-04-26T03:57:36.474Z,11.20
2018-04-26T04:00:09.166Z,11.98
2018-04-26T04:02:42.095Z,13.52
2018-04-26T04:05:26.717Z,12.07
2018-04-26T04:07:53.430Z,13.05
2018-04-26T04:10:20.153Z,13.45
2018-04-26T04:12:46.944Z,12.50
2018-04-26T04:15:13.714Z,13.95
2018-04-26T04:17:40.462Z,12.82
2018-04-26T04:20:07.181Z,13.60
2018-04-26T04:22:34.057Z,14.48
2018-04-26T04:25:00.799Z,13.57
2018-04-26T04:27:28.361Z,15.30
2018-04-26T04:29:55.081Z,15.40
2018-04-26T04:32:22.044Z,14.70
2018-04-26T04:34:48.845Z,16.58
2018-04-26T04:37:15.577Z,16.20
2018-04-26T04:39:42.354Z,14.35
2018-04-26T04:42:10.048Z,14.10
2018-04-26T04:44:36.945Z,14.57
2018-04-26T04:47:03.660Z,12.90
2018-04-26T04:49:30.489Z,13.35
2018-04-26T04:51:57.249Z,11.82
2018-04-26T04:54:23.968Z,11.98
2018-04-26T04:56:50.690Z,10.50
2018-04-26T04:59:17.455Z,10.77
2018-04-26T05:01:44.202Z,9.57
2018-04-26T05:04:10.917Z,8.75
2018-04-26T05:06:38.733Z,8.00
2018-04-26T05:09:06.153Z,8.07
2018-04-26T05:11:33.801Z,7.15
2018-04-26T05:14:00.706Z,6.78
2018-04-26T05:16:28.045Z,6.65
2018-04-26T05:18:54.789Z,5.80
2018-04-26T05:21:21.537Z,5.20
2018-04-26T05:23:48.430Z,5.45
2018-04-26T05:26:15.187Z,5.40
2018-04-26T05:28:42.658Z,4.55
2018-04-26T05:31:10.405Z,4.60
2018-04-26T05:33:38.210Z,4.00
2018-04-26T05:36:04.924Z,2.90
2018-04-26T05:38:31.945Z,3.15
2018-04-26T05:40:58.783Z,2.30
2018-04-26T05:43:25.494Z,2.50
2018-04-26T05:45:52.908Z,2.50
2018-04-26T05:48:19.752Z,2.62
2018-04-26T05:50:47.748Z,2.28
2018-04-26T05:53:14.916Z,2.62
2018-04-26T05:55:41.759Z,3.30
2018-04-26T05:58:08.861Z,2.58
2018-04-26T06:00:35.821Z,2.90
2018-04-26T06:03:02.558Z,2.90
2018-04-26T06:05:30.563Z,2.62
2018-04-26T06:07:57.924Z,3.00
2018-04-26T06:10:24.659Z,3.08
2018-04-26T06:12:51.377Z,3.10
2018-04-26T06:15:18.374Z,3.17
2018-04-26T06:17:45.085Z,3.12
2018-04-26T06:20:11.794Z,2.85
2018-04-26T06:22:38.758Z,3.00
2018-04-26T06:25:05.539Z,2.90
2018-04-26T06:27:32.284Z,3.03
2018-04-26T06:29:59.014Z,3.12
2018-04-26T06:32:25.797Z,3.15
2018-04-26T06:34:52.746Z,3.40
2018-04-26T06:37:19.499Z,3.10
2018-04-26T06:39:46.250Z,3.33
2018-04-26T06:42:13.245Z,3.42
2018-04-26T06:44:39.973Z,3.03
2018-04-26T06:47:06.799Z,3.65
2018-04-26T06:49:33.908Z,3.95
2018-04-26T06:52:00.925Z,3.20
2018-04-26T06:54:27.679Z,3.20
2018-04-26T06:56:55.585Z,3.30
2018-04-26T06:59:22.307Z,3.70
2018-04-26T07:01:49.280Z,3.12
2018-04-26T07:04:16.081Z,4.50
2018-04-26T07:06:42.792Z,3.65
2018-04-26T07:09:09.773Z,3.90
2018-04-26T07:11:36.813Z,3.25
2018-04-26T07:14:04.240Z,3.55
2018-04-26T07:16:31.018Z,3.50
2018-04-26T07:18:57.765Z,3.20
2018-04-26T07:21:24.501Z,3.85
2018-04-26T07:23:51.215Z,3.70
2018-04-26T07:26:18.045Z,4.03
2018-04-26T07:28:44.754Z,3.40
2018-04-26T07:31:12.387Z,3.33
2018-04-26T07:33:39.355Z,4.07
2018-04-26T07:36:07.137Z,4.28
2018-04-26T07:38:35.809Z,3.85
2018-04-26T07:41:03.353Z,4.18
2018-04-26T07:43:30.296Z,4.40
2018-04-26T07:45:57.010Z,4.32
2018-04-26T07:48:23.986Z,5.15
2018-04-26T07:50:50.693Z,5.05
2018-04-26T07:53:17.486Z,4.72
2018-04-26T07:55:44.245Z,5.07
2018-04-26T07:58:10.958Z,5.03
2018-04-26T08:00:38.611Z,5.93
2018-04-26T08:03:05.348Z,6.50
2018-04-26T08:05:32.067Z,6.45
2018-04-26T08:07:59.798Z,5.97
2018-04-26T08:10:26.537Z,6.10
2018-04-26T08:12:53.291Z,6.60
2018-04-26T08:15:20.010Z,7.40
2018-04-26T08:17:47.198Z,7.35
2018-04-26T08:20:13.912Z,7.60
2018-04-26T08:22:40.655Z,8.48
2018-04-26T08:25:07.477Z,5.75
2018-04-26T08:27:34.915Z,4.20
2018-04-26T08:30:02.529Z,3.70
2018-04-26T08:32:29.329Z,4.53
2018-04-26T08:34:56.068Z,4.25
2018-04-26T08:37:22.785Z,3.83
2018-04-26T08:39:49.728Z,3.80
2018-04-26T08:42:16.534Z,3.17
2018-04-26T08:44:43.509Z,3.03
2018-04-26T08:47:10.287Z,3.15
2018-04-26T08:49:37.014Z,3.40
2018-04-26T08:52:03.745Z,3.37
2018-04-26T08:54:30.462Z,2.60
2018-04-26T08:56:57.397Z,3.70
2018-04-26T08:59:24.177Z,3.95
2018-04-26T09:01:52.396Z,4.00
2018-04-26T09:04:19.092Z,4.60
2018-04-26T09:06:45.856Z,4.37
2018-04-26T09:09:12.573Z,5.10
2018-04-26T09:11:39.510Z,5.07
2018-04-26T09:14:06.328Z,4.20
2018-04-26T09:16:33.061Z,5.20
2018-04-26T09:19:00.560Z,5.73
2018-04-26T09:21:27.270Z,6.53
2018-04-26T09:23:53.984Z,5.87
2018-04-26T09:26:20.725Z,5.87
2018-04-26T09:28:47.661Z,5.00
2018-04-26T09:31:14.379Z,4.90
2018-04-26T09:33:41.700Z,4.60
2018-04-26T09:36:08.760Z,4.20
2018-04-26T09:38:35.628Z,5.13
2018-04-26T09:41:02.365Z,5.23
2018-04-26T09:43:29.069Z,5.50
2018-04-26T09:45:55.790Z,5.37
2018-04-26T09:48:23.197Z,5.87
2018-04-26T09:50:49.907Z,6.93
2018-04-26T09:53:16.682Z,6.83
2018-04-26T09:55:43.414Z,6.03
2018-04-26T09:58:10.118Z,5.70
2018-04-26T10:00:42.677Z,5.90
2018-04-26T10:03:12.160Z,5.33
2018-04-26T10:05:45.997Z,5.50
2018-04-26T10:08:12.746Z,5.77
2018-04-26T10:10:39.859Z,5.97
2018-04-26T10:13:06.653Z,5.70
2018-04-26T10:15:34.074Z,5.20
2018-04-26T10:18:00.793Z,5.23
2018-04-26T10:20:27.533Z,5.70
2018-04-26T10:22:54.238Z,5.63
2018-04-26T10:25:21.679Z,5.60
2018-04-26T10:27:48.443Z,6.00
2018-04-26T10:30:15.170Z,6.30
2018-04-26T10:32:42.533Z,6.50
2018-04-26T10:35:09.536Z,7.10
2018-04-26T10:37:36.253Z,6.90
2018-04-26T10:40:02.964Z,7.10
2018-04-26T10:42:30.016Z,7.10
2018-04-26T10:44:56.744Z,7.40
2018-04-26T10:47:23.959Z,7.20
2018-04-26T10:49:51.431Z,7.80
2018-04-26T10:52:18.148Z,7.77
2018-04-26T10:54:45.834Z,7.60
2018-04-26T10:57:13.405Z,7.83
2018-04-26T10:59:40.467Z,6.73
2018-04-26T11:02:07.194Z,6.77
2018-04-26T11:04:33.895Z,6.80
2018-04-26T11:07:01.160Z,6.60
2018-04-26T11:09:27.889Z,6.63
2018-04-26T11:11:54.601Z,6.07
2018-04-26T11:14:21.550Z,6.63
2018-04-26T11:16:48.267Z,6.00
2018-04-26T11:19:14.997Z,5.40
2018-04-26T11:21:41.732Z,6.67
2018-04-26T11:24:08.467Z,7.70
2018-04-26T11:26:35.841Z,7.80
2018-04-26T11:29:02.551Z,7.70
2018-04-26T11:31:29.293Z,7.28
2018-04-26T11:33:56.247Z,5.75
2018-04-26T11:36:24.144Z,6.60
2018-04-26T11:38:50.919Z,5.30
2018-04-26T11:41:17.668Z,6.05
2018-04-26T11:43:44.545Z,4.75
2018-04-26T11:46:12.066Z,5.15
2018-04-26T11:48:55.334Z,5.37
2018-04-26T11:51:22.475Z,4.10
2018-04-26T11:53:49.707Z,4.80
2018-04-26T11:56:17.464Z,3.97
2018-04-26T11:58:44.402Z,4.28
2018-04-26T12:01:11.655Z,4.70
2018-04-26T12:03:38.621Z,4.50
2018-04-26T12:06:06.444Z,5.57
2018-04-26T12:08:33.677Z,4.87
2018-04-26T12:11:01.281Z,4.85
2018-04-26T12:13:28.168Z,5.20
2018-04-26T12:15:54.908Z,5.03
2018-04-26T12:18:22.233Z,5.00
2018-04-26T12:20:49.240Z,5.12
2018-04-26T12:23:16.350Z,6.00
2018-04-26T12:25:43.985Z,5.93
2018-04-26T12:28:11.116Z,5.68
2018-04-26T12:30:38.857Z,4.85
2018-04-26T12:33:06.036Z,4.10
2018-04-26T12:35:33.727Z,3.87
2018-04-26T12:38:00.583Z,3.83
2018-04-26T12:40:27.867Z,3.75
2018-04-26T12:42:54.609Z,4.15
2018-04-26T12:45:21.802Z,3.40
2018-04-26T12:47:48.619Z,3.92
2018-04-26T12:50:15.408Z,4.45
2018-04-26T12:52:43.001Z,4.95
2018-04-26T12:55:10.124Z,5.55
2018-04-26T12:57:37.747Z,5.18
2018-04-26T13:00:06.601Z,5.80
2018-04-26T13:02:34.690Z,4.95
2018-04-26T13:05:02.155Z,5.90
2018-04-26T13:07:28.936Z,5.30
2018-04-26T13:09:56.782Z,6.65
2018-04-26T13:12:24.411Z,5.30
2018-04-26T13:14:52.375Z,5.57
2018-04-26T13:17:21.012Z,5.85
2018-04-26T13:19:48.712Z,5.50
2018-04-26T13:22:15.671Z,6.25
2018-04-26T13:24:44.252Z,5.70
2018-04-26T13:27:11.172Z,6.70
2018-04-26T13:29:37.963Z,7.68
2018-04-26T13:32:06.168Z,7.80
2018-04-26T13:34:34.721Z,7.93
2018-04-26T13:37:02.670Z,6.70
2018-04-26T13:39:30.894Z,7.28
2018-04-26T13:41:58.711Z,7.35
2018-04-26T13:44:26.292Z,7.00
2018-04-26T13:46:53.607Z,7.60
2018-04-26T13:49:20.971Z,8.38
2018-04-26T13:51:48.988Z,8.15
2018-04-26T13:54:16.625Z,7.20
2018-04-26T13:56:44.085Z,6.90
2018-04-26T13:59:11.289Z,6.80
2018-04-26T14:01:38.265Z,7.05
2018-04-26T14:04:05.060Z,6.70
2018-04-26T14:06:32.139Z,6.62
2018-04-26T14:08:59.630Z,6.45
2018-04-26T14:11:27.124Z,6.70
2018-04-26T14:13:54.731Z,5.50
2018-04-26T14:16:24.186Z,6.57
2018-04-26T14:18:50.968Z,4.95
2018-04-26T14:21:17.765Z,5.35
2018-04-26T14:23:46.960Z,4.55
2018-04-26T14:26:15.272Z,4.28
2018-04-26T14:28:42.765Z,4.05
2018-04-26T14:31:11.260Z,4.30
2018-04-26T14:33:39.743Z,4.00
2018-04-26T14:36:06.919Z,4.40
2018-04-26T14:38:35.643Z,4.30
2018-04-26T14:41:03.548Z,3.85
2018-04-26T14:43:30.406Z,4.18
2018-04-26T14:45:57.116Z,4.75
2018-04-26T14:48:23.887Z,5.30
2018-04-26T14:50:50.680Z,4.97
2018-04-26T14:53:17.475Z,5.60
2018-04-26T14:55:50.723Z,5.62
2018-04-26T14:58:18.355Z,4.60
2018-04-26T15:00:46.168Z,4.28
2018-04-26T15:20:01.393Z,3.40
2018-04-26T15:22:28.102Z,2.80
2018-04-26T15:24:55.725Z,3.40
2018-04-26T15:27:22.469Z,3.50
2018-04-26T15:29:49.188Z,3.25
2018-04-26T15:32:16.872Z,3.45
2018-04-26T15:34:44.632Z,3.55
2018-04-26T15:37:11.899Z,4.93
2018-04-26T15:39:39.604Z,6.43
2018-04-26T15:42:06.537Z,5.85
2018-04-26T15:44:33.353Z,6.12
2018-04-26T15:47:00.111Z,5.93
2018-04-26T15:49:26.832Z,5.40
2018-04-26T15:51:53.616Z,5.50
2018-04-26T15:58:13.820Z,3.05
2018-04-26T16:00:52.195Z,3.12
2018-04-26T16:03:24.761Z,2.17
2018-04-26T16:05:57.426Z,2.67
2018-04-26T16:08:36.175Z,2.45
2018-04-26T16:11:14.803Z,5.78
2018-04-26T16:13:53.494Z,2.62
2018-04-26T16:16:33.293Z,2.35
2018-04-26T16:19:05.976Z,3.47
2018-04-26T16:21:38.675Z,2.70
2018-04-26T16:24:06.226Z,2.50
2018-04-26T16:26:38.950Z,2.80
2018-04-26T16:29:17.430Z,2.75
2018-04-26T16:31:56.021Z,2.70
2018-04-26T16:34:43.387Z,2.70
2018-04-26T16:37:16.141Z,2.87
2018-04-26T16:39:42.880Z,3.60
2018-04-26T16:42:09.603Z,3.55
2018-04-26T16:44:36.346Z,4.03
2018-04-26T16:47:03.919Z,3.40
2018-04-26T16:49:30.741Z,4.32
2018-04-26T16:51:57.483Z,4.07
2018-04-26T16:54:24.300Z,4.28
2018-04-26T16:56:51.081Z,4.18
2018-04-26T16:59:17.862Z,5.28
2018-04-26T17:01:44.665Z,5.62
2018-04-26T17:04:11.434Z,5.07
2018-04-26T17:06:39.864Z,6.15
2018-04-26T17:09:06.588Z,3.75
2018-04-26T17:11:33.332Z,3.92
2018-04-26T17:14:00.159Z,3.20
2018-04-26T17:16:27.468Z,3.33
2018-04-26T17:18:54.189Z,4.07
2018-04-26T17:21:20.974Z,3.97
2018-04-26T17:23:47.761Z,4.30
2018-04-26T17:26:14.492Z,4.20
2018-04-26T17:28:41.302Z,3.83
2018-04-26T17:31:08.711Z,4.37
2018-04-26T17:33:35.519Z,3.90
2018-04-26T17:36:02.285Z,4.30
2018-04-26T17:38:28.999Z,5.15
2018-04-26T17:40:55.796Z,4.57
2018-04-26T17:43:22.570Z,5.22
2018-04-26T17:45:49.319Z,5.68
2018-04-26T17:48:16.175Z,5.10
2018-04-26T17:50:42.916Z,5.00
2018-04-26T17:53:09.644Z,6.05
2018-04-26T17:55:36.403Z,5.45
2018-04-26T17:58:03.135Z,5.97
2018-04-26T18:00:30.025Z,5.22
2018-04-26T18:02:56.956Z,4.90
2018-04-26T18:05:23.819Z,5.10
2018-04-26T18:07:50.868Z,5.65
2018-04-26T18:10:17.659Z,5.70
2018-04-26T18:12:44.388Z,4.40
2018-04-26T18:15:11.247Z,5.28
2018-04-26T18:17:37.963Z,4.90
2018-04-26T18:20:08.570Z,4.95
2018-04-26T18:22:31.460Z,5.10
2018-04-26T18:24:58.295Z,4.03
2018-04-26T18:27:25.037Z,4.87
2018-04-26T18:29:51.976Z,4.93
2018-04-26T18:32:18.717Z,5.70
2018-04-26T18:34:45.479Z,6.32
2018-04-26T18:37:12.221Z,6.00
2018-04-26T18:39:38.934Z,6.30
2018-04-26T18:42:05.700Z,5.03
2018-04-26T18:44:32.439Z,5.12
2018-04-26T18:46:59.184Z,4.60
2018-04-26T18:49:25.958Z,4.62
2018-04-26T18:51:52.845Z,4.87
2018-04-26T18:54:19.591Z,5.30
2018-04-26T18:56:46.328Z,4.47
2018-04-26T18:59:13.062Z,5.10
2018-04-26T19:01:39.842Z,4.55
2018-04-26T19:04:06.571Z,4.53
2018-04-26T19:06:33.281Z,4.45
2018-04-26T19:09:00.212Z,5.00
2018-04-26T19:11:26.955Z,4.35
2018-04-26T19:13:53.730Z,4.65
2018-04-26T19:16:20.498Z,5.30
2018-04-26T19:18:47.238Z,5.57
2018-04-26T19:21:13.964Z,5.45
2018-04-26T19:23:40.784Z,5.43
2018-04-26T19:26:07.575Z,5.90
2018-04-26T19:28:34.303Z,6.30
2018-04-26T19:31:01.029Z,5.25
2018-04-26T19:33:27.788Z,6.25
2018-04-26T19:35:58.522Z,5.70
2018-04-26T19:38:25.332Z,6.50
2018-04-26T19:40:52.212Z,5.80
2018-04-26T19:43:18.984Z,5.95
2018-04-26T19:45:45.738Z,6.25
2018-04-26T19:48:12.534Z,6.03
2018-04-26T19:50:39.289Z,6.28
2018-04-26T19:53:06.033Z,5.35
2018-04-26T19:55:32.781Z,6.00
2018-04-26T19:57:59.532Z,5.80
2018-04-26T20:00:26.246Z,6.40
2018-04-26T20:02:52.971Z,6.20
2018-04-26T20:05:19.720Z,6.07
2018-04-26T20:07:46.439Z,5.75
2018-04-26T20:10:13.148Z,7.12
2018-04-26T20:12:39.914Z,6.82
2018-04-26T20:15:06.650Z,7.22
2018-04-26T20:17:33.406Z,7.05
2018-04-26T20:20:00.130Z,7.18
2018-04-26T20:22:26.883Z,8.60
2018-04-26T20:24:53.592Z,7.90
2018-04-26T20:27:20.347Z,7.72
2018-04-26T20:29:47.063Z,7.50
2018-04-26T20:32:13.786Z,8.05
2018-04-26T20:34:40.544Z,8.10
2018-04-26T20:37:07.259Z,8.40
2018-04-26T20:39:34.076Z,9.35
2018-04-26T20:42:00.792Z,9.52
2018-04-26T20:44:33.513Z,8.95
2018-04-26T20:47:00.231Z,9.38
2018-04-26T20:49:26.962Z,8.70
2018-04-26T20:51:53.713Z,9.50
2018-04-26T20:54:20.469Z,9.90
2018-04-26T20:56:47.211Z,9.70
2018-04-26T20:59:14.004Z,10.75
2018-04-26T21:01:40.809Z,10.73
2018-04-26T21:04:07.567Z,10.30
2018-04-26T21:06:34.352Z,9.70
2018-04-26T21:09:01.120Z,10.05
2018-04-26T21:11:27.894Z,10.57
2018-04-26T21:13:54.716Z,10.65
2018-04-26T21:16:21.464Z,10.30
2018-04-26T21:18:48.252Z,10.07
2018-04-26T21:21:15.009Z,11.77
2018-04-26T21:23:41.790Z,10.98
2018-04-26T21:26:09.221Z,10.40
2018-04-26T21:28:36.027Z,10.63
2018-04-26T21:31:02.774Z,11.10
2018-04-26T21:33:29.593Z,11.40
2018-04-26T21:35:56.477Z,11.10
2018-04-26T21:38:23.287Z,10.57
2018-04-26T21:40:50.224Z,10.75
2018-04-26T21:43:17.013Z,11.15
2018-04-26T21:45:43.772Z,10.15
2018-04-26T21:48:10.552Z,10.90
2018-04-26T21:50:43.130Z,10.55
2018-04-26T21:53:15.575Z,11.15
2018-04-26T21:55:47.864Z,10.40
2018-04-26T21:58:20.339Z,11.27
2018-04-26T22:00:52.814Z,10.82
2018-04-26T22:03:35.490Z,11.48
2018-04-26T22:06:03.916Z,11.00
2018-04-26T22:08:32.029Z,11.52
2018-04-26T22:11:00.206Z,12.23
2018-04-26T22:13:27.981Z,12.68
2018-04-26T22:15:55.626Z,11.60
2018-04-26T22:18:22.479Z,11.65
2018-04-26T22:20:49.280Z,11.25
2018-04-26T22:23:16.039Z,12.55
2018-04-26T22:25:42.798Z,12.82
2018-04-26T22:28:09.579Z,12.90
2018-04-26T22:30:36.369Z,15.23
2018-04-26T22:33:04.895Z,12.52
2018-04-26T22:35:31.678Z,13.10
2018-04-26T22:37:58.433Z,14.20
2018-04-26T22:40:25.698Z,13.57
2018-04-26T22:42:52.495Z,13.82
2018-04-26T22:45:19.252Z,14.00
2018-04-26T22:47:46.009Z,12.40
2018-04-26T22:50:12.812Z,12.98
2018-04-26T22:52:39.569Z,12.88
2018-04-26T22:55:06.327Z,12.90
2018-04-26T22:57:33.151Z,13.18
2018-04-26T22:59:59.910Z,12.90
2018-04-26T23:02:26.673Z,13.90
2018-04-26T23:04:53.559Z,12.45
2018-04-26T23:07:20.376Z,12.93
2018-04-26T23:09:47.156Z,14.38
2018-04-26T23:12:13.955Z,14.35
2018-04-26T23:14:40.707Z,14.40
2018-04-26T23:17:07.486Z,13.45
2018-04-26T23:19:34.283Z,14.38
2018-04-26T23:22:01.040Z,14.77
2018-04-26T23:24:27.798Z,15.50
2018-04-26T23:26:54.588Z,15.82
2018-04-26T23:29:21.367Z,15.27
2018-04-26T23:31:48.126Z,15.68
2018-04-26T23:34:14.931Z,15.95
2018-04-26T23:36:41.680Z,15.98
2018-04-26T23:39:08.443Z,15.10
2018-04-26T23:41:35.245Z,15.57
2018-04-26T23:44:01.996Z,16.15
2018-04-26T23:46:28.759Z,16.33
2018-04-26T23:48:55.548Z,16.20
2018-04-26T23:51:22.303Z,18.23
2018-04-26T23:53:49.066Z,16.70
2018-04-26T23:56:15.873Z,17.40
2018-04-26T23:58:42.668Z,17.33
